sensor_id;sensor_type;location;lat;lon;timestamp;pressure;altitude;pressure_sealevel;temperature
15709;BMP180;7954;51.914;8.420;2022-08-19T00:01:43;100031.94;;;27.61
15709;BMP180;7954;51.914;8.420;2022-08-19T00:04:22;100036.84;;;27.58
15709;BMP180;7954;51.914;8.420;2022-08-19T00:06:51;100032.41;;;27.57
15709;BMP180;7954;51.914;8.420;2022-08-19T00:09:20;100035.97;;;27.49
15709;BMP180;7954;51.914;8.420;2022-08-19T00:11:49;100032.44;;;27.48
15709;BMP180;7954;51.914;8.420;2022-08-19T00:14:19;100026.03;;;27.45
15709;BMP180;7954;51.914;8.420;2022-08-19T00:16:48;100024.69;;;27.40
15709;BMP180;7954;51.914;8.420;2022-08-19T00:19:19;100036.34;;;27.35
15709;BMP180;7954;51.914;8.420;2022-08-19T00:21:47;100039.56;;;27.32
15709;BMP180;7954;51.914;8.420;2022-08-19T00:24:17;100042.00;;;27.31
15709;BMP180;7954;51.914;8.420;2022-08-19T00:26:46;100034.72;;;27.27
15709;BMP180;7954;51.914;8.420;2022-08-19T00:29:18;100028.31;;;27.24
15709;BMP180;7954;51.914;8.420;2022-08-19T00:31:51;100021.28;;;27.23
15709;BMP180;7954;51.914;8.420;2022-08-19T00:34:25;100020.25;;;27.21
15709;BMP180;7954;51.914;8.420;2022-08-19T00:36:55;100016.31;;;27.16
15709;BMP180;7954;51.914;8.420;2022-08-19T00:39:23;100011.75;;;27.13
15709;BMP180;7954;51.914;8.420;2022-08-19T00:41:54;100009.78;;;27.11
15709;BMP180;7954;51.914;8.420;2022-08-19T00:44:25;100022.94;;;27.04
15709;BMP180;7954;51.914;8.420;2022-08-19T00:46:56;100021.44;;;26.97
15709;BMP180;7954;51.914;8.420;2022-08-19T00:49:31;100015.00;;;26.94
15709;BMP180;7954;51.914;8.420;2022-08-19T00:52:03;100025.22;;;26.92
15709;BMP180;7954;51.914;8.420;2022-08-19T00:54:32;100018.56;;;26.86
15709;BMP180;7954;51.914;8.420;2022-08-19T00:57:01;100029.69;;;26.85
15709;BMP180;7954;51.914;8.420;2022-08-19T00:59:31;100026.19;;;26.84
15709;BMP180;7954;51.914;8.420;2022-08-19T01:02:22;100025.88;;;26.81
15709;BMP180;7954;51.914;8.420;2022-08-19T01:04:52;100029.72;;;26.76
15709;BMP180;7954;51.914;8.420;2022-08-19T01:07:22;100033.06;;;26.75
15709;BMP180;7954;51.914;8.420;2022-08-19T01:09:51;100026.84;;;26.73
15709;BMP180;7954;51.914;8.420;2022-08-19T01:12:19;100028.34;;;26.71
15709;BMP180;7954;51.914;8.420;2022-08-19T01:14:48;100025.47;;;26.68
15709;BMP180;7954;51.914;8.420;2022-08-19T01:17:17;100019.09;;;26.65
15709;BMP180;7954;51.914;8.420;2022-08-19T01:19:47;100015.28;;;26.61
15709;BMP180;7954;51.914;8.420;2022-08-19T01:22:26;100005.66;;;26.60
15709;BMP180;7954;51.914;8.420;2022-08-19T01:24:59;100003.41;;;26.55
15709;BMP180;7954;51.914;8.420;2022-08-19T01:27:37;100012.69;;;26.53
15709;BMP180;7954;51.914;8.420;2022-08-19T01:30:10;99999.59;;;26.52
15709;BMP180;7954;51.914;8.420;2022-08-19T01:32:38;99999.31;;;26.49
15709;BMP180;7954;51.914;8.420;2022-08-19T01:35:07;99992.31;;;26.48
15709;BMP180;7954;51.914;8.420;2022-08-19T01:37:45;99997.63;;;26.49
15709;BMP180;7954;51.914;8.420;2022-08-19T01:40:13;99994.16;;;26.49
15709;BMP180;7954;51.914;8.420;2022-08-19T01:42:42;99990.19;;;26.44
15709;BMP180;7954;51.914;8.420;2022-08-19T01:45:10;99988.97;;;26.40
15709;BMP180;7954;51.914;8.420;2022-08-19T01:47:37;99985.03;;;26.35
15709;BMP180;7954;51.914;8.420;2022-08-19T01:50:10;99967.19;;;26.30
15709;BMP180;7954;51.914;8.420;2022-08-19T01:52:41;99974.84;;;26.20
15709;BMP180;7954;51.914;8.420;2022-08-19T01:55:14;99966.47;;;26.05
15709;BMP180;7954;51.914;8.420;2022-08-19T01:57:46;99958.41;;;25.94
15709;BMP180;7954;51.914;8.420;2022-08-19T02:00:18;99964.34;;;25.93
15709;BMP180;7954;51.914;8.420;2022-08-19T02:02:47;99975.78;;;25.95
15709;BMP180;7954;51.914;8.420;2022-08-19T02:05:15;99971.38;;;25.86
15709;BMP180;7954;51.914;8.420;2022-08-19T02:07:44;99974.09;;;25.79
15709;BMP180;7954;51.914;8.420;2022-08-19T02:10:15;99975.59;;;25.68
15709;BMP180;7954;51.914;8.420;2022-08-19T02:12:44;99980.63;;;25.67
15709;BMP180;7954;51.914;8.420;2022-08-19T02:15:13;99964.63;;;25.71
15709;BMP180;7954;51.914;8.420;2022-08-19T02:17:40;99978.38;;;25.78
15709;BMP180;7954;51.914;8.420;2022-08-19T02:20:10;99977.75;;;25.81
15709;BMP180;7954;51.914;8.420;2022-08-19T02:22:39;99961.94;;;25.78
15709;BMP180;7954;51.914;8.420;2022-08-19T02:25:09;99965.56;;;25.71
15709;BMP180;7954;51.914;8.420;2022-08-19T02:27:40;99969.66;;;25.69
15709;BMP180;7954;51.914;8.420;2022-08-19T02:30:13;99972.41;;;25.71
15709;BMP180;7954;51.914;8.420;2022-08-19T02:32:42;99968.34;;;25.73
15709;BMP180;7954;51.914;8.420;2022-08-19T02:35:11;99973.50;;;25.73
15709;BMP180;7954;51.914;8.420;2022-08-19T02:37:40;99980.16;;;25.71
15709;BMP180;7954;51.914;8.420;2022-08-19T02:40:25;99977.00;;;25.73
15709;BMP180;7954;51.914;8.420;2022-08-19T02:42:55;99970.41;;;25.68
15709;BMP180;7954;51.914;8.420;2022-08-19T02:45:23;99974.06;;;25.62
15709;BMP180;7954;51.914;8.420;2022-08-19T02:47:50;99982.28;;;25.58
15709;BMP180;7954;51.914;8.420;2022-08-19T02:50:19;99972.22;;;25.52
15709;BMP180;7954;51.914;8.420;2022-08-19T02:52:47;99977.41;;;25.52
15709;BMP180;7954;51.914;8.420;2022-08-19T02:55:15;99975.91;;;25.54
15709;BMP180;7954;51.914;8.420;2022-08-19T02:57:43;99972.56;;;25.55
15709;BMP180;7954;51.914;8.420;2022-08-19T03:00:13;99970.72;;;25.54
15709;BMP180;7954;51.914;8.420;2022-08-19T03:02:42;99980.31;;;25.55
15709;BMP180;7954;51.914;8.420;2022-08-19T03:05:10;99983.06;;;25.57
15709;BMP180;7954;51.914;8.420;2022-08-19T03:07:38;99995.84;;;25.55
15709;BMP180;7954;51.914;8.420;2022-08-19T03:10:07;99998.84;;;25.51
15709;BMP180;7954;51.914;8.420;2022-08-19T03:12:36;100009.03;;;25.50
15709;BMP180;7954;51.914;8.420;2022-08-19T03:15:06;100012.25;;;25.47
15709;BMP180;7954;51.914;8.420;2022-08-19T03:17:36;100003.25;;;25.44
15709;BMP180;7954;51.914;8.420;2022-08-19T03:20:05;100001.28;;;25.41
15709;BMP180;7954;51.914;8.420;2022-08-19T03:22:33;99995.19;;;25.41
15709;BMP180;7954;51.914;8.420;2022-08-19T03:25:01;100003.84;;;25.41
15709;BMP180;7954;51.914;8.420;2022-08-19T03:27:29;100012.53;;;25.42
15709;BMP180;7954;51.914;8.420;2022-08-19T03:30:00;100016.03;;;25.42
15709;BMP180;7954;51.914;8.420;2022-08-19T03:32:28;100012.84;;;25.45
15709;BMP180;7954;51.914;8.420;2022-08-19T03:35:00;100007.38;;;25.42
15709;BMP180;7954;51.914;8.420;2022-08-19T03:37:29;100007.66;;;25.45
15709;BMP180;7954;51.914;8.420;2022-08-19T03:39:57;100000.81;;;25.37
15709;BMP180;7954;51.914;8.420;2022-08-19T03:42:25;100004.75;;;25.33
15709;BMP180;7954;51.914;8.420;2022-08-19T03:45:14;100002.47;;;25.36
15709;BMP180;7954;51.914;8.420;2022-08-19T03:47:41;100002.94;;;25.32
15709;BMP180;7954;51.914;8.420;2022-08-19T03:50:11;100006.13;;;25.30
15709;BMP180;7954;51.914;8.420;2022-08-19T03:52:39;100026.81;;;25.30
15709;BMP180;7954;51.914;8.420;2022-08-19T03:55:13;100022.22;;;25.27
15709;BMP180;7954;51.914;8.420;2022-08-19T03:57:41;100015.69;;;25.23
15709;BMP180;7954;51.914;8.420;2022-08-19T04:00:09;100016.59;;;25.15
15709;BMP180;7954;51.914;8.420;2022-08-19T04:02:39;100028.94;;;25.02
15709;BMP180;7954;51.914;8.420;2022-08-19T04:05:26;100025.38;;;24.84
15709;BMP180;7954;51.914;8.420;2022-08-19T04:07:55;100018.78;;;24.71
15709;BMP180;7954;51.914;8.420;2022-08-19T04:10:26;100016.59;;;24.59
15709;BMP180;7954;51.914;8.420;2022-08-19T04:12:54;100026.31;;;24.53
15709;BMP180;7954;51.914;8.420;2022-08-19T04:15:22;100023.88;;;24.54
15709;BMP180;7954;51.914;8.420;2022-08-19T04:17:51;100034.50;;;24.57
15709;BMP180;7954;51.914;8.420;2022-08-19T04:20:19;100028.16;;;24.62
15709;BMP180;7954;51.914;8.420;2022-08-19T04:22:49;100025.72;;;24.63
15709;BMP180;7954;51.914;8.420;2022-08-19T04:25:17;100017.81;;;24.62
15709;BMP180;7954;51.914;8.420;2022-08-19T04:27:49;100014.00;;;24.59
15709;BMP180;7954;51.914;8.420;2022-08-19T04:30:17;100014.28;;;24.53
15709;BMP180;7954;51.914;8.420;2022-08-19T04:32:45;100028.09;;;24.45
15709;BMP180;7954;51.914;8.420;2022-08-19T04:35:13;100035.00;;;24.38
15709;BMP180;7954;51.914;8.420;2022-08-19T04:37:46;100036.47;;;24.36
15709;BMP180;7954;51.914;8.420;2022-08-19T04:40:15;100036.47;;;24.36
15709;BMP180;7954;51.914;8.420;2022-08-19T04:43:01;100037.00;;;24.40
15709;BMP180;7954;51.914;8.420;2022-08-19T04:45:29;100032.75;;;24.41
15709;BMP180;7954;51.914;8.420;2022-08-19T04:48:09;100034.75;;;24.43
15709;BMP180;7954;51.914;8.420;2022-08-19T04:50:54;100034.44;;;24.49
15709;BMP180;7954;51.914;8.420;2022-08-19T04:53:24;100037.44;;;24.60
15709;BMP180;7954;51.914;8.420;2022-08-19T04:56:04;100041.72;;;24.68
15709;BMP180;7954;51.914;8.420;2022-08-19T04:58:34;100039.03;;;24.75
15709;BMP180;7954;51.914;8.420;2022-08-19T05:01:02;100040.25;;;24.78
15709;BMP180;7954;51.914;8.420;2022-08-19T05:03:30;100042.22;;;24.81
15709;BMP180;7954;51.914;8.420;2022-08-19T05:06:04;100043.75;;;24.79
15709;BMP180;7954;51.914;8.420;2022-08-19T05:08:34;100041.19;;;24.79
15709;BMP180;7954;51.914;8.420;2022-08-19T05:11:09;100035.84;;;24.77
15709;BMP180;7954;51.914;8.420;2022-08-19T05:13:40;100036.44;;;24.75
15709;BMP180;7954;51.914;8.420;2022-08-19T05:16:09;100048.72;;;24.69
15709;BMP180;7954;51.914;8.420;2022-08-19T05:18:38;100038.06;;;24.66
15709;BMP180;7954;51.914;8.420;2022-08-19T05:21:26;100041.03;;;24.54
15709;BMP180;7954;51.914;8.420;2022-08-19T05:24:14;100041.03;;;24.54
15709;BMP180;7954;51.914;8.420;2022-08-19T05:26:47;100038.72;;;24.48
15709;BMP180;7954;51.914;8.420;2022-08-19T05:29:18;100039.31;;;24.46
15709;BMP180;7954;51.914;8.420;2022-08-19T05:31:48;100046.97;;;24.53
15709;BMP180;7954;51.914;8.420;2022-08-19T05:34:17;100036.66;;;24.61
15709;BMP180;7954;51.914;8.420;2022-08-19T05:36:49;100049.75;;;24.63
15709;BMP180;7954;51.914;8.420;2022-08-19T05:39:20;100043.41;;;24.67
15709;BMP180;7954;51.914;8.420;2022-08-19T05:41:53;100038.97;;;24.66
15709;BMP180;7954;51.914;8.420;2022-08-19T05:44:24;100040.03;;;24.68
15709;BMP180;7954;51.914;8.420;2022-08-19T05:46:52;100033.09;;;24.76
15709;BMP180;7954;51.914;8.420;2022-08-19T05:49:22;100035.06;;;24.70
15709;BMP180;7954;51.914;8.420;2022-08-19T05:51:50;100034.28;;;24.71
15709;BMP180;7954;51.914;8.420;2022-08-19T05:54:18;100023.63;;;24.68
15709;BMP180;7954;51.914;8.420;2022-08-19T05:56:46;100022.16;;;24.70
15709;BMP180;7954;51.914;8.420;2022-08-19T05:59:17;100021.97;;;24.68
15709;BMP180;7954;51.914;8.420;2022-08-19T06:01:49;100025.28;;;24.59
15709;BMP180;7954;51.914;8.420;2022-08-19T06:04:19;100029.69;;;24.60
15709;BMP180;7954;51.914;8.420;2022-08-19T06:06:50;100030.91;;;24.63
15709;BMP180;7954;51.914;8.420;2022-08-19T06:09:22;100033.06;;;24.67
15709;BMP180;7954;51.914;8.420;2022-08-19T06:11:52;100029.09;;;24.63
15709;BMP180;7954;51.914;8.420;2022-08-19T06:14:24;100026.97;;;24.67
15709;BMP180;7954;51.914;8.420;2022-08-19T06:16:53;100029.09;;;24.71
15709;BMP180;7954;51.914;8.420;2022-08-19T06:19:22;100029.75;;;24.77
15709;BMP180;7954;51.914;8.420;2022-08-19T06:21:52;100034.38;;;24.88
15709;BMP180;7954;51.914;8.420;2022-08-19T06:24:22;100040.22;;;25.02
15709;BMP180;7954;51.914;8.420;2022-08-19T06:26:52;100024.63;;;25.18
15709;BMP180;7954;51.914;8.420;2022-08-19T06:29:28;100030.63;;;25.33
15709;BMP180;7954;51.914;8.420;2022-08-19T06:32:00;100032.19;;;25.48
15709;BMP180;7954;51.914;8.420;2022-08-19T06:34:31;100035.22;;;25.61
15709;BMP180;7954;51.914;8.420;2022-08-19T06:37:00;100030.06;;;25.70
15709;BMP180;7954;51.914;8.420;2022-08-19T06:39:34;100018.88;;;25.78
15709;BMP180;7954;51.914;8.420;2022-08-19T06:42:06;100027.09;;;25.91
15709;BMP180;7954;51.914;8.420;2022-08-19T06:44:40;100029.97;;;26.02
15709;BMP180;7954;51.914;8.420;2022-08-19T06:47:16;100036.84;;;26.10
15709;BMP180;7954;51.914;8.420;2022-08-19T06:49:54;100029.50;;;26.23
15709;BMP180;7954;51.914;8.420;2022-08-19T06:52:28;100030.53;;;26.33
15709;BMP180;7954;51.914;8.420;2022-08-19T06:55:00;100032.13;;;26.40
15709;BMP180;7954;51.914;8.420;2022-08-19T06:57:33;100026.31;;;26.42
15709;BMP180;7954;51.914;8.420;2022-08-19T07:00:04;100025.84;;;26.46
15709;BMP180;7954;51.914;8.420;2022-08-19T07:02:38;100037.22;;;26.57
15709;BMP180;7954;51.914;8.420;2022-08-19T07:05:08;100044.72;;;26.62
15709;BMP180;7954;51.914;8.420;2022-08-19T07:07:36;100042.25;;;26.72
15709;BMP180;7954;51.914;8.420;2022-08-19T07:10:08;100034.00;;;26.76
15709;BMP180;7954;51.914;8.420;2022-08-19T07:12:37;100041.28;;;26.88
15709;BMP180;7954;51.914;8.420;2022-08-19T07:15:09;100042.63;;;26.93
15709;BMP180;7954;51.914;8.420;2022-08-19T07:17:39;100041.69;;;27.01
15709;BMP180;7954;51.914;8.420;2022-08-19T07:20:10;100031.75;;;27.14
15709;BMP180;7954;51.914;8.420;2022-08-19T07:22:39;100034.13;;;27.21
15709;BMP180;7954;51.914;8.420;2022-08-19T07:25:08;100036.41;;;27.27
15709;BMP180;7954;51.914;8.420;2022-08-19T07:27:37;100037.22;;;27.44
15709;BMP180;7954;51.914;8.420;2022-08-19T07:30:11;100046.13;;;27.56
15709;BMP180;7954;51.914;8.420;2022-08-19T07:32:40;100050.69;;;27.67
15709;BMP180;7954;51.914;8.420;2022-08-19T07:35:10;100044.81;;;27.78
15709;BMP180;7954;51.914;8.420;2022-08-19T07:37:38;100053.25;;;27.93
15709;BMP180;7954;51.914;8.420;2022-08-19T07:40:11;100057.13;;;28.07
15709;BMP180;7954;51.914;8.420;2022-08-19T07:42:39;100059.19;;;28.19
15709;BMP180;7954;51.914;8.420;2022-08-19T07:45:11;100068.84;;;28.30
15709;BMP180;7954;51.914;8.420;2022-08-19T07:47:38;100063.19;;;28.34
15709;BMP180;7954;51.914;8.420;2022-08-19T07:50:17;100067.41;;;28.52
15709;BMP180;7954;51.914;8.420;2022-08-19T07:52:47;100067.50;;;28.72
15709;BMP180;7954;51.914;8.420;2022-08-19T07:55:18;100071.34;;;28.75
15709;BMP180;7954;51.914;8.420;2022-08-19T07:58:07;100064.72;;;28.79
15709;BMP180;7954;51.914;8.420;2022-08-19T08:00:36;100068.69;;;28.94
15709;BMP180;7954;51.914;8.420;2022-08-19T08:03:04;100060.41;;;29.08
15709;BMP180;7954;51.914;8.420;2022-08-19T08:05:32;100056.63;;;29.14
15709;BMP180;7954;51.914;8.420;2022-08-19T08:08:17;100069.28;;;29.29
15709;BMP180;7954;51.914;8.420;2022-08-19T08:11:11;100074.56;;;29.49
15709;BMP180;7954;51.914;8.420;2022-08-19T08:13:41;100064.97;;;29.68
15709;BMP180;7954;51.914;8.420;2022-08-19T08:16:10;100067.81;;;29.81
15709;BMP180;7954;51.914;8.420;2022-08-19T08:18:40;100070.44;;;30.01
15709;BMP180;7954;51.914;8.420;2022-08-19T08:21:18;100064.69;;;30.05
15709;BMP180;7954;51.914;8.420;2022-08-19T08:23:46;100075.38;;;30.18
15709;BMP180;7954;51.914;8.420;2022-08-19T08:26:16;100068.03;;;30.34
15709;BMP180;7954;51.914;8.420;2022-08-19T08:28:44;100059.44;;;30.35
15709;BMP180;7954;51.914;8.420;2022-08-19T08:31:16;100062.56;;;30.41
15709;BMP180;7954;51.914;8.420;2022-08-19T08:33:46;100067.91;;;30.42
15709;BMP180;7954;51.914;8.420;2022-08-19T08:36:14;100065.44;;;30.44
15709;BMP180;7954;51.914;8.420;2022-08-19T08:38:44;100056.16;;;30.47
15709;BMP180;7954;51.914;8.420;2022-08-19T08:41:18;100060.53;;;30.68
15709;BMP180;7954;51.914;8.420;2022-08-19T08:43:52;100057.44;;;30.93
15709;BMP180;7954;51.914;8.420;2022-08-19T08:46:25;100056.03;;;31.18
15709;BMP180;7954;51.914;8.420;2022-08-19T08:49:02;100056.09;;;31.29
15709;BMP180;7954;51.914;8.420;2022-08-19T08:51:40;100056.69;;;31.37
15709;BMP180;7954;51.914;8.420;2022-08-19T08:54:16;100053.09;;;31.25
15709;BMP180;7954;51.914;8.420;2022-08-19T08:56:46;100060.09;;;31.15
15709;BMP180;7954;51.914;8.420;2022-08-19T08:59:21;100052.44;;;31.06
15709;BMP180;7954;51.914;8.420;2022-08-19T09:01:52;100055.81;;;31.26
15709;BMP180;7954;51.914;8.420;2022-08-19T09:04:20;100044.88;;;31.52
15709;BMP180;7954;51.914;8.420;2022-08-19T09:06:52;100044.81;;;31.73
15709;BMP180;7954;51.914;8.420;2022-08-19T09:09:26;100037.38;;;32.00
15709;BMP180;7954;51.914;8.420;2022-08-19T09:12:05;100037.78;;;32.16
15709;BMP180;7954;51.914;8.420;2022-08-19T09:14:45;100039.81;;;32.20
15709;BMP180;7954;51.914;8.420;2022-08-19T09:17:20;100046.41;;;32.27
15709;BMP180;7954;51.914;8.420;2022-08-19T09:19:56;100051.22;;;32.44
15709;BMP180;7954;51.914;8.420;2022-08-19T09:22:27;100048.28;;;32.62
15709;BMP180;7954;51.914;8.420;2022-08-19T09:24:55;100046.56;;;32.62
15709;BMP180;7954;51.914;8.420;2022-08-19T09:27:25;100045.19;;;32.45
15709;BMP180;7954;51.914;8.420;2022-08-19T09:30:12;100044.72;;;32.27
15709;BMP180;7954;51.914;8.420;2022-08-19T09:32:43;100043.31;;;32.09
15709;BMP180;7954;51.914;8.420;2022-08-19T09:35:12;100047.09;;;32.01
15709;BMP180;7954;51.914;8.420;2022-08-19T09:37:41;100037.09;;;32.19
15709;BMP180;7954;51.914;8.420;2022-08-19T09:40:10;100036.53;;;32.23
15709;BMP180;7954;51.914;8.420;2022-08-19T09:42:38;100046.00;;;31.99
15709;BMP180;7954;51.914;8.420;2022-08-19T09:45:20;100039.31;;;31.92
15709;BMP180;7954;51.914;8.420;2022-08-19T09:47:52;100041.84;;;32.01
15709;BMP180;7954;51.914;8.420;2022-08-19T09:50:22;100046.09;;;31.90
15709;BMP180;7954;51.914;8.420;2022-08-19T09:52:51;100055.38;;;31.75
15709;BMP180;7954;51.914;8.420;2022-08-19T09:55:25;100042.47;;;31.88
15709;BMP180;7954;51.914;8.420;2022-08-19T09:57:57;100044.84;;;32.17
15709;BMP180;7954;51.914;8.420;2022-08-19T10:00:25;100042.34;;;32.30
15709;BMP180;7954;51.914;8.420;2022-08-19T10:02:55;100034.38;;;32.17
15709;BMP180;7954;51.914;8.420;2022-08-19T10:05:23;100046.97;;;32.11
15709;BMP180;7954;51.914;8.420;2022-08-19T10:08:09;100039.63;;;31.85
15709;BMP180;7954;51.914;8.420;2022-08-19T10:10:39;100043.25;;;31.87
15709;BMP180;7954;51.914;8.420;2022-08-19T10:13:13;100036.06;;;32.05
15709;BMP180;7954;51.914;8.420;2022-08-19T10:15:41;100043.59;;;32.35
15709;BMP180;7954;51.914;8.420;2022-08-19T10:18:16;100030.53;;;32.69
15709;BMP180;7954;51.914;8.420;2022-08-19T10:20:45;100022.72;;;32.94
15709;BMP180;7954;51.914;8.420;2022-08-19T10:23:18;100028.28;;;33.10
15709;BMP180;7954;51.914;8.420;2022-08-19T10:25:46;100023.84;;;33.09
15709;BMP180;7954;51.914;8.420;2022-08-19T10:28:14;100026.50;;;32.86
15709;BMP180;7954;51.914;8.420;2022-08-19T10:30:45;100030.16;;;32.76
15709;BMP180;7954;51.914;8.420;2022-08-19T10:33:15;100031.50;;;32.83
15709;BMP180;7954;51.914;8.420;2022-08-19T10:36:06;100020.22;;;33.07
15709;BMP180;7954;51.914;8.420;2022-08-19T10:38:34;100022.63;;;33.04
15709;BMP180;7954;51.914;8.420;2022-08-19T10:41:07;100014.75;;;33.15
15709;BMP180;7954;51.914;8.420;2022-08-19T10:43:35;100017.47;;;33.17
15709;BMP180;7954;51.914;8.420;2022-08-19T10:46:05;100010.22;;;33.13
15709;BMP180;7954;51.914;8.420;2022-08-19T10:48:44;100004.97;;;33.13
15709;BMP180;7954;51.914;8.420;2022-08-19T10:51:12;99997.47;;;33.06
15709;BMP180;7954;51.914;8.420;2022-08-19T10:54:00;99990.84;;;33.11
15709;BMP180;7954;51.914;8.420;2022-08-19T10:56:32;99990.97;;;33.36
15709;BMP180;7954;51.914;8.420;2022-08-19T10:59:19;99993.59;;;33.61
15709;BMP180;7954;51.914;8.420;2022-08-19T11:01:53;99988.41;;;33.74
15709;BMP180;7954;51.914;8.420;2022-08-19T11:04:24;99977.19;;;33.52
15709;BMP180;7954;51.914;8.420;2022-08-19T11:06:55;99978.16;;;33.52
15709;BMP180;7954;51.914;8.420;2022-08-19T11:09:25;99984.53;;;33.44
15709;BMP180;7954;51.914;8.420;2022-08-19T11:12:00;99978.72;;;33.73
15709;BMP180;7954;51.914;8.420;2022-08-19T11:14:31;99982.88;;;33.95
15709;BMP180;7954;51.914;8.420;2022-08-19T11:17:01;99969.78;;;33.95
15709;BMP180;7954;51.914;8.420;2022-08-19T11:19:31;99986.63;;;33.98
15709;BMP180;7954;51.914;8.420;2022-08-19T11:22:00;99982.97;;;33.84
15709;BMP180;7954;51.914;8.420;2022-08-19T11:24:30;99975.81;;;33.94
15709;BMP180;7954;51.914;8.420;2022-08-19T11:27:02;99964.97;;;34.14
15709;BMP180;7954;51.914;8.420;2022-08-19T11:29:31;99962.53;;;34.04
15709;BMP180;7954;51.914;8.420;2022-08-19T11:32:04;99957.09;;;34.01
15709;BMP180;7954;51.914;8.420;2022-08-19T11:34:35;99959.81;;;34.02
15709;BMP180;7954;51.914;8.420;2022-08-19T11:37:03;99965.47;;;34.21
15709;BMP180;7954;51.914;8.420;2022-08-19T11:39:33;99959.91;;;34.43
15709;BMP180;7954;51.914;8.420;2022-08-19T11:42:03;99951.63;;;34.62
15709;BMP180;7954;51.914;8.420;2022-08-19T11:44:51;99947.81;;;34.70
15709;BMP180;7954;51.914;8.420;2022-08-19T11:47:19;99950.88;;;34.51
15709;BMP180;7954;51.914;8.420;2022-08-19T11:49:50;99950.81;;;34.38
15709;BMP180;7954;51.914;8.420;2022-08-19T11:52:19;99952.88;;;34.42
15709;BMP180;7954;51.914;8.420;2022-08-19T11:54:47;99942.56;;;34.45
15709;BMP180;7954;51.914;8.420;2022-08-19T11:57:16;99946.59;;;34.53
15709;BMP180;7954;51.914;8.420;2022-08-19T11:59:48;99942.34;;;34.67
15709;BMP180;7954;51.914;8.420;2022-08-19T12:02:17;99929.59;;;34.73
15709;BMP180;7954;51.914;8.420;2022-08-19T12:04:45;99932.66;;;34.66
15709;BMP180;7954;51.914;8.420;2022-08-19T12:07:15;99941.94;;;34.74
15709;BMP180;7954;51.914;8.420;2022-08-19T12:09:43;99936.28;;;34.96
15709;BMP180;7954;51.914;8.420;2022-08-19T12:12:14;99941.00;;;35.14
15709;BMP180;7954;51.914;8.420;2022-08-19T12:14:42;99946.69;;;35.07
15709;BMP180;7954;51.914;8.420;2022-08-19T12:17:11;99935.41;;;34.95
15709;BMP180;7954;51.914;8.420;2022-08-19T12:19:40;99927.63;;;34.97
15709;BMP180;7954;51.914;8.420;2022-08-19T12:22:08;99925.31;;;35.01
15709;BMP180;7954;51.914;8.420;2022-08-19T12:24:38;99922.28;;;35.23
15709;BMP180;7954;51.914;8.420;2022-08-19T12:27:06;99932.19;;;35.41
15709;BMP180;7954;51.914;8.420;2022-08-19T12:29:38;99919.28;;;35.58
15709;BMP180;7954;51.914;8.420;2022-08-19T12:32:06;99923.91;;;35.62
15709;BMP180;7954;51.914;8.420;2022-08-19T12:34:37;99925.16;;;35.69
15709;BMP180;7954;51.914;8.420;2022-08-19T12:37:07;99917.94;;;35.65
15709;BMP180;7954;51.914;8.420;2022-08-19T12:39:41;99915.09;;;35.76
15709;BMP180;7954;51.914;8.420;2022-08-19T12:42:12;99913.13;;;35.72
15709;BMP180;7954;51.914;8.420;2022-08-19T12:44:42;99919.66;;;35.37
15709;BMP180;7954;51.914;8.420;2022-08-19T12:47:12;99923.88;;;35.06
15709;BMP180;7954;51.914;8.420;2022-08-19T12:49:41;99922.28;;;34.55
15709;BMP180;7954;51.914;8.420;2022-08-19T12:52:22;99910.88;;;34.42
15709;BMP180;7954;51.914;8.420;2022-08-19T12:54:52;99921.81;;;34.22
15709;BMP180;7954;51.914;8.420;2022-08-19T12:57:21;99914.94;;;34.37
15709;BMP180;7954;51.914;8.420;2022-08-19T12:59:59;99917.50;;;34.75
15709;BMP180;7954;51.914;8.420;2022-08-19T13:02:30;99910.34;;;35.28
15709;BMP180;7954;51.914;8.420;2022-08-19T13:05:06;99898.97;;;35.70
15709;BMP180;7954;51.914;8.420;2022-08-19T13:07:37;99884.44;;;36.36
15709;BMP180;7954;51.914;8.420;2022-08-19T13:10:09;99890.38;;;36.92
15709;BMP180;7954;51.914;8.420;2022-08-19T13:12:38;99887.97;;;37.29
15709;BMP180;7954;51.914;8.420;2022-08-19T13:15:08;99881.19;;;37.18
15709;BMP180;7954;51.914;8.420;2022-08-19T13:17:39;99873.88;;;36.96
15709;BMP180;7954;51.914;8.420;2022-08-19T13:20:09;99887.47;;;36.88
15709;BMP180;7954;51.914;8.420;2022-08-19T13:22:38;99881.97;;;36.83
15709;BMP180;7954;51.914;8.420;2022-08-19T13:25:09;99882.81;;;36.68
15709;BMP180;7954;51.914;8.420;2022-08-19T13:27:38;99888.63;;;36.32
15709;BMP180;7954;51.914;8.420;2022-08-19T13:30:08;99887.53;;;35.98
15709;BMP180;7954;51.914;8.420;2022-08-19T13:32:54;99878.31;;;35.91
15709;BMP180;7954;51.914;8.420;2022-08-19T13:35:46;99879.78;;;36.30
15709;BMP180;7954;51.914;8.420;2022-08-19T13:38:21;99884.22;;;36.77
15709;BMP180;7954;51.914;8.420;2022-08-19T13:41:04;99876.88;;;37.51
15709;BMP180;7954;51.914;8.420;2022-08-19T13:43:39;99867.44;;;38.42
15709;BMP180;7954;51.914;8.420;2022-08-19T13:46:10;99858.00;;;39.00
15709;BMP180;7954;51.914;8.420;2022-08-19T13:48:40;99852.78;;;39.60
15709;BMP180;7954;51.914;8.420;2022-08-19T13:51:10;99852.81;;;39.82
15709;BMP180;7954;51.914;8.420;2022-08-19T13:53:39;99848.84;;;39.91
15709;BMP180;7954;51.914;8.420;2022-08-19T13:56:16;99848.34;;;39.81
15709;BMP180;7954;51.914;8.420;2022-08-19T13:58:51;99848.16;;;39.56
15709;BMP180;7954;51.914;8.420;2022-08-19T14:01:21;99861.09;;;39.11
15709;BMP180;7954;51.914;8.420;2022-08-19T14:03:50;99865.22;;;39.83
15709;BMP180;7954;51.914;8.420;2022-08-19T14:06:18;99851.59;;;40.14
15709;BMP180;7954;51.914;8.420;2022-08-19T14:08:48;99853.81;;;40.68
15709;BMP180;7954;51.914;8.420;2022-08-19T14:11:18;99850.09;;;40.00
15709;BMP180;7954;51.914;8.420;2022-08-19T14:13:46;99852.38;;;39.71
15709;BMP180;7954;51.914;8.420;2022-08-19T14:16:14;99851.22;;;39.65
15709;BMP180;7954;51.914;8.420;2022-08-19T14:18:42;99860.38;;;39.93
15709;BMP180;7954;51.914;8.420;2022-08-19T14:21:15;99866.38;;;39.69
15709;BMP180;7954;51.914;8.420;2022-08-19T14:23:44;99872.28;;;39.63
15709;BMP180;7954;51.914;8.420;2022-08-19T14:26:15;99860.56;;;39.57
15709;BMP180;7954;51.914;8.420;2022-08-19T14:28:46;99865.72;;;40.15
15709;BMP180;7954;51.914;8.420;2022-08-19T14:31:16;99862.63;;;39.64
15709;BMP180;7954;51.914;8.420;2022-08-19T14:33:45;99879.78;;;39.53
15709;BMP180;7954;51.914;8.420;2022-08-19T14:36:13;99865.47;;;40.09
15709;BMP180;7954;51.914;8.420;2022-08-19T14:38:43;99865.94;;;39.79